sensor_id;sensor_type;location;lat;lon;timestamp;P1;durP1;ratioP1;P2;durP2;ratioP2
12135;SDS011;6131;56.420;15.548;2022-09-21T00:01:20;1.10;;;1.00;;
12135;SDS011;6131;56.420;15.548;2022-09-21T00:03:47;1.40;;;0.97;;
12135;SDS011;6131;56.420;15.548;2022-09-21T00:06:14;3.67;;;1.10;;
12135;SDS011;6131;56.420;15.548;2022-09-21T00:08:40;1.23;;;1.13;;
12135;SDS011;6131;56.420;15.548;2022-09-21T00:11:09;1.17;;;1.00;;
12135;SDS011;6131;56.420;15.548;2022-09-21T00:13:36;1.73;;;1.10;;
12135;SDS011;6131;56.420;15.548;2022-09-21T00:16:04;1.73;;;0.90;;
12135;SDS011;6131;56.420;15.548;2022-09-21T00:18:30;2.03;;;1.00;;
12135;SDS011;6131;56.420;15.548;2022-09-21T00:20:56;1.40;;;1.13;;
12135;SDS011;6131;56.420;15.548;2022-09-21T00:23:22;0.93;;;0.83;;
12135;SDS011;6131;56.420;15.548;2022-09-21T00:25:48;1.43;;;0.90;;
12135;SDS011;6131;56.420;15.548;2022-09-21T00:28:14;1.73;;;1.03;;
12135;SDS011;6131;56.420;15.548;2022-09-21T00:30:41;0.97;;;0.87;;
12135;SDS011;6131;56.420;15.548;2022-09-21T00:33:07;1.57;;;1.47;;
12135;SDS011;6131;56.420;15.548;2022-09-21T00:35:33;1.67;;;1.00;;
12135;SDS011;6131;56.420;15.548;2022-09-21T00:37:59;4.07;;;1.13;;
12135;SDS011;6131;56.420;15.548;2022-09-21T00:40:25;2.07;;;0.90;;
12135;SDS011;6131;56.420;15.548;2022-09-21T00:42:51;3.43;;;1.10;;
12135;SDS011;6131;56.420;15.548;2022-09-21T00:45:17;1.20;;;0.97;;
12135;SDS011;6131;56.420;15.548;2022-09-21T00:47:47;1.07;;;0.97;;
12135;SDS011;6131;56.420;15.548;2022-09-21T00:50:17;1.00;;;0.90;;
12135;SDS011;6131;56.420;15.548;2022-09-21T00:52:44;1.00;;;0.90;;
12135;SDS011;6131;56.420;15.548;2022-09-21T00:55:12;1.70;;;1.00;;
12135;SDS011;6131;56.420;15.548;2022-09-21T00:57:41;1.40;;;1.30;;
12135;SDS011;6131;56.420;15.548;2022-09-21T01:00:08;2.03;;;0.90;;
12135;SDS011;6131;56.420;15.548;2022-09-21T01:02:35;1.33;;;0.93;;
12135;SDS011;6131;56.420;15.548;2022-09-21T01:05:03;1.30;;;1.00;;
12135;SDS011;6131;56.420;15.548;2022-09-21T01:07:30;0.97;;;0.83;;
12135;SDS011;6131;56.420;15.548;2022-09-21T01:09:58;1.70;;;1.00;;
12135;SDS011;6131;56.420;15.548;2022-09-21T01:17:29;0.80;;;0.80;;
12135;SDS011;6131;56.420;15.548;2022-09-21T01:25:09;1.17;;;0.70;;
12135;SDS011;6131;56.420;15.548;2022-09-21T01:27:38;0.90;;;0.90;;
12135;SDS011;6131;56.420;15.548;2022-09-21T01:30:10;0.80;;;0.77;;
12135;SDS011;6131;56.420;15.548;2022-09-21T01:32:45;0.70;;;0.70;;
12135;SDS011;6131;56.420;15.548;2022-09-21T01:35:18;1.60;;;0.97;;
12135;SDS011;6131;56.420;15.548;2022-09-21T01:37:46;2.70;;;1.40;;
12135;SDS011;6131;56.420;15.548;2022-09-21T01:40:17;1.40;;;1.17;;
12135;SDS011;6131;56.420;15.548;2022-09-21T01:42:45;2.30;;;1.20;;
12135;SDS011;6131;56.420;15.548;2022-09-21T01:45:14;1.00;;;0.73;;
12135;SDS011;6131;56.420;15.548;2022-09-21T01:47:41;1.33;;;0.70;;
12135;SDS011;6131;56.420;15.548;2022-09-21T01:50:07;0.80;;;0.80;;
12135;SDS011;6131;56.420;15.548;2022-09-21T01:52:41;0.90;;;0.80;;
12135;SDS011;6131;56.420;15.548;2022-09-21T01:55:11;0.97;;;0.70;;
12135;SDS011;6131;56.420;15.548;2022-09-21T02:00:25;1.00;;;0.70;;
12135;SDS011;6131;56.420;15.548;2022-09-21T02:05:22;0.70;;;0.60;;
12135;SDS011;6131;56.420;15.548;2022-09-21T02:07:50;1.03;;;0.80;;
12135;SDS011;6131;56.420;15.548;2022-09-21T02:10:20;0.63;;;0.63;;
12135;SDS011;6131;56.420;15.548;2022-09-21T02:12:47;0.70;;;0.70;;
12135;SDS011;6131;56.420;15.548;2022-09-21T02:15:15;3.30;;;0.73;;
12135;SDS011;6131;56.420;15.548;2022-09-21T02:20:40;1.93;;;0.60;;
12135;SDS011;6131;56.420;15.548;2022-09-21T02:23:21;2.47;;;0.80;;
12135;SDS011;6131;56.420;15.548;2022-09-21T02:30:54;3.23;;;0.70;;
12135;SDS011;6131;56.420;15.548;2022-09-21T02:33:31;0.77;;;0.70;;
12135;SDS011;6131;56.420;15.548;2022-09-21T02:38:39;1.10;;;0.80;;
12135;SDS011;6131;56.420;15.548;2022-09-21T02:41:12;1.10;;;0.63;;
12135;SDS011;6131;56.420;15.548;2022-09-21T02:44:03;0.87;;;0.70;;
12135;SDS011;6131;56.420;15.548;2022-09-21T02:46:53;0.80;;;0.80;;
12135;SDS011;6131;56.420;15.548;2022-09-21T02:49:24;2.30;;;0.70;;
12135;SDS011;6131;56.420;15.548;2022-09-21T02:51:53;1.17;;;0.60;;
12135;SDS011;6131;56.420;15.548;2022-09-21T02:54:23;1.93;;;0.70;;
12135;SDS011;6131;56.420;15.548;2022-09-21T02:56:49;1.77;;;0.80;;
12135;SDS011;6131;56.420;15.548;2022-09-21T02:59:16;0.70;;;0.60;;
12135;SDS011;6131;56.420;15.548;2022-09-21T03:01:42;0.77;;;0.60;;
12135;SDS011;6131;56.420;15.548;2022-09-21T03:04:09;1.00;;;0.77;;
12135;SDS011;6131;56.420;15.548;2022-09-21T03:06:35;1.03;;;0.70;;
12135;SDS011;6131;56.420;15.548;2022-09-21T03:09:01;0.97;;;0.60;;
12135;SDS011;6131;56.420;15.548;2022-09-21T03:11:27;1.33;;;0.70;;
12135;SDS011;6131;56.420;15.548;2022-09-21T03:13:53;3.13;;;0.70;;
12135;SDS011;6131;56.420;15.548;2022-09-21T03:16:20;8.07;;;1.33;;
12135;SDS011;6131;56.420;15.548;2022-09-21T03:18:46;0.90;;;0.60;;
12135;SDS011;6131;56.420;15.548;2022-09-21T03:21:12;0.80;;;0.80;;
12135;SDS011;6131;56.420;15.548;2022-09-21T03:23:39;2.30;;;0.60;;
12135;SDS011;6131;56.420;15.548;2022-09-21T03:26:05;4.67;;;1.07;;
12135;SDS011;6131;56.420;15.548;2022-09-21T03:28:32;4.50;;;0.70;;
12135;SDS011;6131;56.420;15.548;2022-09-21T03:30:58;0.60;;;0.60;;
12135;SDS011;6131;56.420;15.548;2022-09-21T03:33:24;0.80;;;0.60;;
12135;SDS011;6131;56.420;15.548;2022-09-21T03:35:50;2.83;;;0.67;;
12135;SDS011;6131;56.420;15.548;2022-09-21T03:38:17;2.93;;;0.70;;
12135;SDS011;6131;56.420;15.548;2022-09-21T03:40:47;1.67;;;0.70;;
12135;SDS011;6131;56.420;15.548;2022-09-21T03:43:13;2.63;;;0.60;;
12135;SDS011;6131;56.420;15.548;2022-09-21T03:45:39;0.70;;;0.70;;
12135;SDS011;6131;56.420;15.548;2022-09-21T03:48:06;0.77;;;0.60;;
12135;SDS011;6131;56.420;15.548;2022-09-21T03:50:32;0.73;;;0.73;;
12135;SDS011;6131;56.420;15.548;2022-09-21T03:52:58;0.83;;;0.70;;
12135;SDS011;6131;56.420;15.548;2022-09-21T03:55:24;1.90;;;0.80;;
12135;SDS011;6131;56.420;15.548;2022-09-21T03:57:51;1.10;;;0.60;;
12135;SDS011;6131;56.420;15.548;2022-09-21T04:00:17;0.90;;;0.67;;
12135;SDS011;6131;56.420;15.548;2022-09-21T04:02:43;0.63;;;0.53;;
12135;SDS011;6131;56.420;15.548;2022-09-21T04:05:10;0.70;;;0.60;;
12135;SDS011;6131;56.420;15.548;2022-09-21T04:07:38;0.83;;;0.53;;
12135;SDS011;6131;56.420;15.548;2022-09-21T04:10:05;0.60;;;0.50;;
12135;SDS011;6131;56.420;15.548;2022-09-21T04:12:32;0.63;;;0.60;;
12135;SDS011;6131;56.420;15.548;2022-09-21T04:14:58;0.90;;;0.67;;
12135;SDS011;6131;56.420;15.548;2022-09-21T04:17:25;0.57;;;0.50;;
12135;SDS011;6131;56.420;15.548;2022-09-21T04:19:51;0.80;;;0.80;;
12135;SDS011;6131;56.420;15.548;2022-09-21T04:22:18;1.00;;;0.80;;
12135;SDS011;6131;56.420;15.548;2022-09-21T04:24:44;0.80;;;0.70;;
12135;SDS011;6131;56.420;15.548;2022-09-21T04:27:10;0.83;;;0.80;;
12135;SDS011;6131;56.420;15.548;2022-09-21T04:29:36;1.00;;;0.80;;
12135;SDS011;6131;56.420;15.548;2022-09-21T04:32:03;1.50;;;1.20;;
12135;SDS011;6131;56.420;15.548;2022-09-21T04:34:29;1.13;;;0.90;;
12135;SDS011;6131;56.420;15.548;2022-09-21T04:36:55;0.67;;;0.67;;
12135;SDS011;6131;56.420;15.548;2022-09-21T04:39:22;1.33;;;0.80;;
12135;SDS011;6131;56.420;15.548;2022-09-21T04:41:48;0.80;;;0.80;;
12135;SDS011;6131;56.420;15.548;2022-09-21T04:44:14;1.13;;;0.80;;
12135;SDS011;6131;56.420;15.548;2022-09-21T04:46:42;0.80;;;0.67;;
12135;SDS011;6131;56.420;15.548;2022-09-21T04:49:08;0.60;;;0.60;;
12135;SDS011;6131;56.420;15.548;2022-09-21T04:51:34;1.27;;;0.80;;
12135;SDS011;6131;56.420;15.548;2022-09-21T04:54:00;1.63;;;0.60;;
12135;SDS011;6131;56.420;15.548;2022-09-21T04:56:27;0.70;;;0.53;;
12135;SDS011;6131;56.420;15.548;2022-09-21T04:58:53;1.13;;;0.67;;
12135;SDS011;6131;56.420;15.548;2022-09-21T05:01:19;1.27;;;0.70;;
12135;SDS011;6131;56.420;15.548;2022-09-21T05:03:45;1.10;;;0.60;;
12135;SDS011;6131;56.420;15.548;2022-09-21T05:06:11;0.60;;;0.60;;
12135;SDS011;6131;56.420;15.548;2022-09-21T05:08:37;0.80;;;0.70;;
12135;SDS011;6131;56.420;15.548;2022-09-21T05:11:22;0.93;;;0.80;;
12135;SDS011;6131;56.420;15.548;2022-09-21T05:13:49;0.63;;;0.63;;
12135;SDS011;6131;56.420;15.548;2022-09-21T05:16:15;2.97;;;0.70;;
12135;SDS011;6131;56.420;15.548;2022-09-21T05:18:41;0.70;;;0.70;;
12135;SDS011;6131;56.420;15.548;2022-09-21T05:21:08;0.80;;;0.70;;
12135;SDS011;6131;56.420;15.548;2022-09-21T05:23:34;2.20;;;0.90;;
12135;SDS011;6131;56.420;15.548;2022-09-21T05:26:00;0.87;;;0.80;;
12135;SDS011;6131;56.420;15.548;2022-09-21T05:28:26;1.30;;;0.70;;
12135;SDS011;6131;56.420;15.548;2022-09-21T05:33:37;0.80;;;0.60;;
12135;SDS011;6131;56.420;15.548;2022-09-21T05:36:25;0.80;;;0.70;;
12135;SDS011;6131;56.420;15.548;2022-09-21T05:38:55;1.90;;;0.70;;
12135;SDS011;6131;56.420;15.548;2022-09-21T05:41:21;1.07;;;0.73;;
12135;SDS011;6131;56.420;15.548;2022-09-21T05:43:47;0.87;;;0.67;;
12135;SDS011;6131;56.420;15.548;2022-09-21T05:46:18;0.70;;;0.60;;
12135;SDS011;6131;56.420;15.548;2022-09-21T05:49:04;1.07;;;0.70;;
12135;SDS011;6131;56.420;15.548;2022-09-21T05:54:08;0.60;;;0.60;;
12135;SDS011;6131;56.420;15.548;2022-09-21T06:03:57;0.83;;;0.70;;
12135;SDS011;6131;56.420;15.548;2022-09-21T06:06:24;0.90;;;0.73;;
12135;SDS011;6131;56.420;15.548;2022-09-21T06:08:50;2.77;;;0.70;;
12135;SDS011;6131;56.420;15.548;2022-09-21T06:11:16;0.83;;;0.60;;
12135;SDS011;6131;56.420;15.548;2022-09-21T06:13:42;2.00;;;0.77;;
12135;SDS011;6131;56.420;15.548;2022-09-21T06:16:08;2.50;;;0.63;;
12135;SDS011;6131;56.420;15.548;2022-09-21T06:18:38;0.60;;;0.60;;
12135;SDS011;6131;56.420;15.548;2022-09-21T06:21:04;1.73;;;0.60;;
12135;SDS011;6131;56.420;15.548;2022-09-21T06:23:30;1.63;;;0.60;;
12135;SDS011;6131;56.420;15.548;2022-09-21T06:25:56;0.80;;;0.60;;
12135;SDS011;6131;56.420;15.548;2022-09-21T06:28:22;0.83;;;0.80;;
12135;SDS011;6131;56.420;15.548;2022-09-21T06:30:51;1.63;;;0.80;;
12135;SDS011;6131;56.420;15.548;2022-09-21T06:33:18;0.87;;;0.73;;
12135;SDS011;6131;56.420;15.548;2022-09-21T06:35:54;1.10;;;0.70;;
12135;SDS011;6131;56.420;15.548;2022-09-21T06:38:20;1.20;;;0.80;;
12135;SDS011;6131;56.420;15.548;2022-09-21T06:40:46;1.00;;;0.70;;
12135;SDS011;6131;56.420;15.548;2022-09-21T06:43:12;1.13;;;0.80;;
12135;SDS011;6131;56.420;15.548;2022-09-21T06:45:38;0.90;;;0.63;;
12135;SDS011;6131;56.420;15.548;2022-09-21T06:48:04;3.00;;;1.10;;
12135;SDS011;6131;56.420;15.548;2022-09-21T06:50:30;1.37;;;0.80;;
12135;SDS011;6131;56.420;15.548;2022-09-21T06:53:01;1.10;;;0.70;;
12135;SDS011;6131;56.420;15.548;2022-09-21T06:55:27;1.17;;;0.70;;
12135;SDS011;6131;56.420;15.548;2022-09-21T06:57:58;0.70;;;0.60;;
12135;SDS011;6131;56.420;15.548;2022-09-21T07:00:25;1.80;;;0.70;;
12135;SDS011;6131;56.420;15.548;2022-09-21T07:02:51;0.70;;;0.60;;
12135;SDS011;6131;56.420;15.548;2022-09-21T07:05:17;0.90;;;0.70;;
12135;SDS011;6131;56.420;15.548;2022-09-21T07:07:43;0.90;;;0.67;;
12135;SDS011;6131;56.420;15.548;2022-09-21T07:10:09;2.07;;;0.50;;
12135;SDS011;6131;56.420;15.548;2022-09-21T07:12:35;0.70;;;0.50;;
12135;SDS011;6131;56.420;15.548;2022-09-21T07:15:02;0.80;;;0.43;;
12135;SDS011;6131;56.420;15.548;2022-09-21T07:17:35;0.80;;;0.47;;
12135;SDS011;6131;56.420;15.548;2022-09-21T07:20:01;0.60;;;0.57;;
12135;SDS011;6131;56.420;15.548;2022-09-21T07:22:28;0.90;;;0.60;;
12135;SDS011;6131;56.420;15.548;2022-09-21T07:24:54;0.90;;;0.50;;
12135;SDS011;6131;56.420;15.548;2022-09-21T07:27:21;0.47;;;0.40;;
12135;SDS011;6131;56.420;15.548;2022-09-21T07:29:47;0.50;;;0.40;;
12135;SDS011;6131;56.420;15.548;2022-09-21T07:32:13;0.60;;;0.40;;
12135;SDS011;6131;56.420;15.548;2022-09-21T07:34:39;1.90;;;0.50;;
12135;SDS011;6131;56.420;15.548;2022-09-21T07:37:05;0.40;;;0.30;;
12135;SDS011;6131;56.420;15.548;2022-09-21T07:39:31;0.80;;;0.37;;
12135;SDS011;6131;56.420;15.548;2022-09-21T07:41:57;0.50;;;0.50;;
12135;SDS011;6131;56.420;15.548;2022-09-21T07:44:24;0.53;;;0.30;;
12135;SDS011;6131;56.420;15.548;2022-09-21T07:46:50;0.70;;;0.40;;
12135;SDS011;6131;56.420;15.548;2022-09-21T07:49:16;1.27;;;0.60;;
12135;SDS011;6131;56.420;15.548;2022-09-21T07:51:42;0.97;;;0.37;;
12135;SDS011;6131;56.420;15.548;2022-09-21T07:54:09;0.50;;;0.27;;
12135;SDS011;6131;56.420;15.548;2022-09-21T07:56:35;0.40;;;0.20;;
12135;SDS011;6131;56.420;15.548;2022-09-21T07:59:02;1.47;;;0.33;;
12135;SDS011;6131;56.420;15.548;2022-09-21T08:01:40;2.77;;;0.50;;
12135;SDS011;6131;56.420;15.548;2022-09-21T08:04:07;0.50;;;0.30;;
12135;SDS011;6131;56.420;15.548;2022-09-21T08:06:34;2.87;;;0.47;;
12135;SDS011;6131;56.420;15.548;2022-09-21T08:09:01;0.90;;;0.47;;
12135;SDS011;6131;56.420;15.548;2022-09-21T08:11:28;0.57;;;0.30;;
12135;SDS011;6131;56.420;15.548;2022-09-21T08:13:56;1.07;;;0.30;;
12135;SDS011;6131;56.420;15.548;2022-09-21T08:16:22;1.00;;;0.37;;
12135;SDS011;6131;56.420;15.548;2022-09-21T08:18:49;1.37;;;0.30;;
12135;SDS011;6131;56.420;15.548;2022-09-21T08:21:16;0.80;;;0.30;;
12135;SDS011;6131;56.420;15.548;2022-09-21T08:23:42;0.50;;;0.40;;
12135;SDS011;6131;56.420;15.548;2022-09-21T08:26:10;1.00;;;0.40;;
12135;SDS011;6131;56.420;15.548;2022-09-21T08:28:40;1.47;;;0.47;;
12135;SDS011;6131;56.420;15.548;2022-09-21T08:31:06;0.40;;;0.30;;
12135;SDS011;6131;56.420;15.548;2022-09-21T08:33:33;1.43;;;0.40;;
12135;SDS011;6131;56.420;15.548;2022-09-21T08:35:59;1.03;;;0.40;;
12135;SDS011;6131;56.420;15.548;2022-09-21T08:38:26;0.80;;;0.43;;
12135;SDS011;6131;56.420;15.548;2022-09-21T08:40:52;0.67;;;0.30;;
12135;SDS011;6131;56.420;15.548;2022-09-21T08:43:34;2.50;;;0.40;;
12135;SDS011;6131;56.420;15.548;2022-09-21T08:46:02;0.67;;;0.40;;
12135;SDS011;6131;56.420;15.548;2022-09-21T08:48:31;0.87;;;0.40;;
12135;SDS011;6131;56.420;15.548;2022-09-21T08:51:03;1.00;;;0.30;;
12135;SDS011;6131;56.420;15.548;2022-09-21T08:53:31;0.70;;;0.30;;
12135;SDS011;6131;56.420;15.548;2022-09-21T08:55:58;0.97;;;0.43;;
12135;SDS011;6131;56.420;15.548;2022-09-21T08:58:26;1.43;;;0.30;;
12135;SDS011;6131;56.420;15.548;2022-09-21T09:06:28;0.50;;;0.20;;
12135;SDS011;6131;56.420;15.548;2022-09-21T09:11:52;0.50;;;0.30;;
12135;SDS011;6131;56.420;15.548;2022-09-21T09:14:25;1.43;;;0.30;;
12135;SDS011;6131;56.420;15.548;2022-09-21T09:19:44;0.50;;;0.30;;
12135;SDS011;6131;56.420;15.548;2022-09-21T09:22:15;1.43;;;0.30;;
12135;SDS011;6131;56.420;15.548;2022-09-21T09:24:45;0.80;;;0.30;;
12135;SDS011;6131;56.420;15.548;2022-09-21T09:27:14;0.60;;;0.30;;
12135;SDS011;6131;56.420;15.548;2022-09-21T09:29:45;0.83;;;0.30;;
12135;SDS011;6131;56.420;15.548;2022-09-21T09:32:14;2.60;;;0.30;;
12135;SDS011;6131;56.420;15.548;2022-09-21T09:34:48;0.90;;;0.40;;
12135;SDS011;6131;56.420;15.548;2022-09-21T09:37:17;0.73;;;0.30;;
12135;SDS011;6131;56.420;15.548;2022-09-21T09:39:53;0.70;;;0.27;;
12135;SDS011;6131;56.420;15.548;2022-09-21T09:42:23;1.03;;;0.20;;
12135;SDS011;6131;56.420;15.548;2022-09-21T09:50:04;0.50;;;0.40;;
12135;SDS011;6131;56.420;15.548;2022-09-21T09:52:31;0.40;;;0.30;;
12135;SDS011;6131;56.420;15.548;2022-09-21T09:54:58;0.90;;;0.20;;
12135;SDS011;6131;56.420;15.548;2022-09-21T09:57:31;0.77;;;0.30;;
12135;SDS011;6131;56.420;15.548;2022-09-21T10:00:03;0.40;;;0.10;;
12135;SDS011;6131;56.420;15.548;2022-09-21T10:02:33;0.40;;;0.20;;
12135;SDS011;6131;56.420;15.548;2022-09-21T10:05:17;1.13;;;0.20;;
12135;SDS011;6131;56.420;15.548;2022-09-21T10:07:44;0.40;;;0.10;;
12135;SDS011;6131;56.420;15.548;2022-09-21T10:12:48;0.50;;;0.20;;
12135;SDS011;6131;56.420;15.548;2022-09-21T10:15:16;0.40;;;0.20;;
12135;SDS011;6131;56.420;15.548;2022-09-21T10:17:45;0.90;;;0.30;;
12135;SDS011;6131;56.420;15.548;2022-09-21T10:20:15;1.27;;;0.20;;
12135;SDS011;6131;56.420;15.548;2022-09-21T10:22:46;0.40;;;0.00;;
12135;SDS011;6131;56.420;15.548;2022-09-21T10:25:14;0.97;;;0.30;;
12135;SDS011;6131;56.420;15.548;2022-09-21T10:27:41;0.40;;;0.20;;
12135;SDS011;6131;56.420;15.548;2022-09-21T10:30:30;0.50;;;0.20;;
12135;SDS011;6131;56.420;15.548;2022-09-21T10:32:54;0.50;;;0.20;;
12135;SDS011;6131;56.420;15.548;2022-09-21T10:35:21;0.40;;;0.10;;
12135;SDS011;6131;56.420;15.548;2022-09-21T10:37:47;0.70;;;0.20;;
12135;SDS011;6131;56.420;15.548;2022-09-21T10:42:49;1.80;;;0.20;;
12135;SDS011;6131;56.420;15.548;2022-09-21T10:45:17;0.50;;;0.20;;
12135;SDS011;6131;56.420;15.548;2022-09-21T10:48:28;0.50;;;0.17;;
12135;SDS011;6131;56.420;15.548;2022-09-21T10:50:42;0.63;;;0.17;;
12135;SDS011;6131;56.420;15.548;2022-09-21T10:56:34;0.50;;;0.20;;
12135;SDS011;6131;56.420;15.548;2022-09-21T10:58:29;0.73;;;0.30;;
12135;SDS011;6131;56.420;15.548;2022-09-21T11:00:55;0.93;;;0.23;;
12135;SDS011;6131;56.420;15.548;2022-09-21T11:03:46;0.63;;;0.27;;
12135;SDS011;6131;56.420;15.548;2022-09-21T11:06:15;0.40;;;0.20;;
12135;SDS011;6131;56.420;15.548;2022-09-21T11:11:20;1.43;;;0.20;;
12135;SDS011;6131;56.420;15.548;2022-09-21T11:13:53;1.00;;;0.20;;
12135;SDS011;6131;56.420;15.548;2022-09-21T11:16:32;0.40;;;0.20;;
12135;SDS011;6131;56.420;15.548;2022-09-21T11:21:44;0.40;;;0.13;;
12135;SDS011;6131;56.420;15.548;2022-09-21T11:26:55;0.63;;;0.20;;
12135;SDS011;6131;56.420;15.548;2022-09-21T11:29:25;0.50;;;0.20;;
12135;SDS011;6131;56.420;15.548;2022-09-21T11:42:20;0.40;;;0.20;;
12135;SDS011;6131;56.420;15.548;2022-09-21T11:44:53;0.40;;;0.20;;
12135;SDS011;6131;56.420;15.548;2022-09-21T12:05:03;0.40;;;0.20;;
12135;SDS011;6131;56.420;15.548;2022-09-21T12:07:41;0.40;;;0.10;;
12135;SDS011;6131;56.420;15.548;2022-09-21T12:10:30;0.50;;;0.37;;
12135;SDS011;6131;56.420;15.548;2022-09-21T12:20:24;1.80;;;0.20;;
12135;SDS011;6131;56.420;15.548;2022-09-21T12:23:01;1.13;;;0.20;;
12135;SDS011;6131;56.420;15.548;2022-09-21T12:25:39;0.97;;;0.40;;
12135;SDS011;6131;56.420;15.548;2022-09-21T12:28:16;0.60;;;0.20;;
12135;SDS011;6131;56.420;15.548;2022-09-21T12:30:45;0.70;;;0.20;;
12135;SDS011;6131;56.420;15.548;2022-09-21T12:41:13;0.53;;;0.30;;
12135;SDS011;6131;56.420;15.548;2022-09-21T12:43:46;0.50;;;0.13;;
12135;SDS011;6131;56.420;15.548;2022-09-21T12:46:20;0.50;;;0.20;;
12135;SDS011;6131;56.420;15.548;2022-09-21T12:48:48;0.40;;;0.20;;
12135;SDS011;6131;56.420;15.548;2022-09-21T12:51:18;0.50;;;0.20;;
12135;SDS011;6131;56.420;15.548;2022-09-21T12:53:49;0.60;;;0.20;;
12135;SDS011;6131;56.420;15.548;2022-09-21T12:59:02;0.73;;;0.20;;
12135;SDS011;6131;56.420;15.548;2022-09-21T13:04:16;0.63;;;0.20;;
12135;SDS011;6131;56.420;15.548;2022-09-21T13:09:28;0.40;;;0.20;;
12135;SDS011;6131;56.420;15.548;2022-09-21T13:11:58;0.40;;;0.17;;
12135;SDS011;6131;56.420;15.548;2022-09-21T13:14:26;0.70;;;0.27;;
12135;SDS011;6131;56.420;15.548;2022-09-21T13:16:59;0.60;;;0.20;;
12135;SDS011;6131;56.420;15.548;2022-09-21T13:19:29;0.50;;;0.20;;
12135;SDS011;6131;56.420;15.548;2022-09-21T13:24:44;0.50;;;0.20;;
12135;SDS011;6131;56.420;15.548;2022-09-21T13:27:11;0.57;;;0.30;;
12135;SDS011;6131;56.420;15.548;2022-09-21T13:29:38;0.40;;;0.20;;
12135;SDS011;6131;56.420;15.548;2022-09-21T13:34:41;0.50;;;0.20;;
12135;SDS011;6131;56.420;15.548;2022-09-21T13:39:43;0.60;;;0.37;;
12135;SDS011;6131;56.420;15.548;2022-09-21T13:44:54;0.40;;;0.20;;
12135;SDS011;6131;56.420;15.548;2022-09-21T13:47:43;0.40;;;0.20;;
12135;SDS011;6131;56.420;15.548;2022-09-21T13:50:10;0.40;;;0.30;;
12135;SDS011;6131;56.420;15.548;2022-09-21T13:52:38;1.43;;;0.20;;
12135;SDS011;6131;56.420;15.548;2022-09-21T13:55:47;0.40;;;0.22;;
12135;SDS011;6131;56.420;15.548;2022-09-21T13:58:06;0.40;;;0.10;;
12135;SDS011;6131;56.420;15.548;2022-09-21T14:00:53;1.00;;;0.30;;
12135;SDS011;6131;56.420;15.548;2022-09-21T14:05:48;0.60;;;0.35;;
12135;SDS011;6131;56.420;15.548;2022-09-21T14:10:54;0.88;;;0.20;;
12135;SDS011;6131;56.420;15.548;2022-09-21T14:13:26;1.30;;;0.30;;
12135;SDS011;6131;56.420;15.548;2022-09-21T14:15:53;0.40;;;0.10;;
12135;SDS011;6131;56.420;15.548;2022-09-21T14:18:20;0.43;;;0.17;;
12135;SDS011;6131;56.420;15.548;2022-09-21T14:23:35;0.85;;;0.20;;
12135;SDS011;6131;56.420;15.548;2022-09-21T14:26:01;0.50;;;0.20;;
12135;SDS011;6131;56.420;15.548;2022-09-21T14:28:44;0.70;;;0.17;;
12135;SDS011;6131;56.420;15.548;2022-09-21T14:31:16;0.40;;;0.10;;
12135;SDS011;6131;56.420;15.548;2022-09-21T14:33:44;2.00;;;0.17;;
12135;SDS011;6131;56.420;15.548;2022-09-21T14:36:13;1.43;;;0.20;;
12135;SDS011;6131;56.420;15.548;2022-09-21T14:38:44;0.40;;;0.20;;
12135;SDS011;6131;56.420;15.548;2022-09-21T14:41:14;0.97;;;0.10;;
12135;SDS011;6131;56.420;15.548;2022-09-21T14:43:43;0.40;;;0.20;;
12135;SDS011;6131;56.420;15.548;2022-09-21T14:51:26;0.40;;;0.20;;
12135;SDS011;6131;56.420;15.548;2022-09-21T14:56:29;0.40;;;0.10;;
12135;SDS011;6131;56.420;15.548;2022-09-21T15:01:39;0.40;;;0.20;;
12135;SDS011;6131;56.420;15.548;2022-09-21T15:06:33;0.50;;;0.20;;
12135;SDS011;6131;56.420;15.548;2022-09-21T15:12:14;0.63;;;0.20;;
12135;SDS011;6131;56.420;15.548;2022-09-21T15:14:43;0.40;;;0.20;;
12135;SDS011;6131;56.420;15.548;2022-09-21T15:17:44;0.40;;;0.20;;
12135;SDS011;6131;56.420;15.548;2022-09-21T15:20:13;0.47;;;0.20;;
12135;SDS011;6131;56.420;15.548;2022-09-21T15:22:42;1.13;;;0.30;;
12135;SDS011;6131;56.420;15.548;2022-09-21T15:25:10;0.50;;;0.30;;
12135;SDS011;6131;56.420;15.548;2022-09-21T15:27:37;0.40;;;0.20;;
12135;SDS011;6131;56.420;15.548;2022-09-21T15:30:04;0.40;;;0.20;;
12135;SDS011;6131;56.420;15.548;2022-09-21T15:34:59;0.40;;;0.20;;
12135;SDS011;6131;56.420;15.548;2022-09-21T15:37:26;0.80;;;0.30;;
12135;SDS011;6131;56.420;15.548;2022-09-21T15:39:59;0.93;;;0.50;;
12135;SDS011;6131;56.420;15.548;2022-09-21T15:42:26;1.63;;;0.43;;
12135;SDS011;6131;56.420;15.548;2022-09-21T15:44:58;0.60;;;0.30;;
12135;SDS011;6131;56.420;15.548;2022-09-21T15:47:30;0.70;;;0.37;;
12135;SDS011;6131;56.420;15.548;2022-09-21T15:49:57;0.77;;;0.40;;
12135;SDS011;6131;56.420;15.548;2022-09-21T15:52:29;0.83;;;0.30;;
12135;SDS011;6131;56.420;15.548;2022-09-21T15:54:58;0.60;;;0.40;;
12135;SDS011;6131;56.420;15.548;2022-09-21T15:57:29;0.50;;;0.30;;
12135;SDS011;6131;56.420;15.548;2022-09-21T15:59:57;0.77;;;0.33;;
12135;SDS011;6131;56.420;15.548;2022-09-21T16:02:24;0.93;;;0.40;;
12135;SDS011;6131;56.420;15.548;2022-09-21T16:04:51;0.80;;;0.30;;
12135;SDS011;6131;56.420;15.548;2022-09-21T16:07:24;0.80;;;0.57;;
12135;SDS011;6131;56.420;15.548;2022-09-21T16:09:51;1.57;;;0.30;;
12135;SDS011;6131;56.420;15.548;2022-09-21T16:17:36;0.40;;;0.40;;
12135;SDS011;6131;56.420;15.548;2022-09-21T16:22:41;0.50;;;0.40;;
12135;SDS011;6131;56.420;15.548;2022-09-21T16:25:19;1.27;;;0.47;;
12135;SDS011;6131;56.420;15.548;2022-09-21T16:27:50;1.27;;;0.50;;
12135;SDS011;6131;56.420;15.548;2022-09-21T16:30:37;0.50;;;0.40;;
12135;SDS011;6131;56.420;15.548;2022-09-21T16:33:32;0.60;;;0.57;;
12135;SDS011;6131;56.420;15.548;2022-09-21T16:35:50;0.70;;;0.60;;
12135;SDS011;6131;56.420;15.548;2022-09-21T16:38:16;0.60;;;0.60;;
12135;SDS011;6131;56.420;15.548;2022-09-21T16:40:45;3.40;;;0.60;;
12135;SDS011;6131;56.420;15.548;2022-09-21T16:43:11;0.60;;;0.40;;
12135;SDS011;6131;56.420;15.548;2022-09-21T16:45:37;1.67;;;0.50;;
12135;SDS011;6131;56.420;15.548;2022-09-21T16:48:03;0.70;;;0.53;;
12135;SDS011;6131;56.420;15.548;2022-09-21T16:50:31;1.23;;;0.60;;
12135;SDS011;6131;56.420;15.548;2022-09-21T16:52:57;0.93;;;0.50;;
12135;SDS011;6131;56.420;15.548;2022-09-21T16:55:23;0.67;;;0.53;;
12135;SDS011;6131;56.420;15.548;2022-09-21T16:57:49;1.03;;;0.53;;
12135;SDS011;6131;56.420;15.548;2022-09-21T17:00:16;3.07;;;0.40;;
12135;SDS011;6131;56.420;15.548;2022-09-21T17:02:49;0.70;;;0.60;;
12135;SDS011;6131;56.420;15.548;2022-09-21T17:05:15;0.90;;;0.60;;
12135;SDS011;6131;56.420;15.548;2022-09-21T17:08:02;0.60;;;0.50;;
12135;SDS011;6131;56.420;15.548;2022-09-21T17:10:30;0.60;;;0.47;;
12135;SDS011;6131;56.420;15.548;2022-09-21T17:12:58;1.90;;;0.60;;
12135;SDS011;6131;56.420;15.548;2022-09-21T17:15:24;0.60;;;0.50;;
12135;SDS011;6131;56.420;15.548;2022-09-21T17:17:52;0.80;;;0.50;;
12135;SDS011;6131;56.420;15.548;2022-09-21T17:20:21;0.87;;;0.40;;
12135;SDS011;6131;56.420;15.548;2022-09-21T17:22:47;0.63;;;0.40;;
12135;SDS011;6131;56.420;15.548;2022-09-21T17:25:13;0.60;;;0.50;;
12135;SDS011;6131;56.420;15.548;2022-09-21T17:27:39;0.70;;;0.50;;
12135;SDS011;6131;56.420;15.548;2022-09-21T17:30:12;2.70;;;0.40;;
12135;SDS011;6131;56.420;15.548;2022-09-21T17:32:39;0.70;;;0.47;;
12135;SDS011;6131;56.420;15.548;2022-09-21T17:35:40;1.20;;;0.70;;
12135;SDS011;6131;56.420;15.548;2022-09-21T17:37:59;0.70;;;0.50;;
12135;SDS011;6131;56.420;15.548;2022-09-21T17:40:26;0.90;;;0.60;;
12135;SDS011;6131;56.420;15.548;2022-09-21T17:43:00;1.67;;;0.60;;
12135;SDS011;6131;56.420;15.548;2022-09-21T17:48:00;0.80;;;0.57;;
12135;SDS011;6131;56.420;15.548;2022-09-21T17:50:26;0.60;;;0.50;;